createdAt,value
2019-05-19T00:02:28.177Z,8.27
2019-05-19T00:04:57.136Z,8.30
2019-05-19T00:07:26.225Z,8.47
2019-05-19T00:12:33.612Z,8.60
2019-05-19T00:15:02.296Z,9.00
2019-05-19T00:17:31.304Z,9.33
2019-05-19T00:20:00.390Z,9.27
2019-05-19T00:22:29.751Z,6.80
2019-05-19T00:27:45.327Z,8.23
2019-05-19T00:30:14.592Z,9.40
2019-05-19T00:32:43.391Z,9.60
2019-05-19T00:35:12.482Z,9.27
2019-05-19T00:37:41.466Z,7.37
2019-05-19T00:42:49.872Z,7.93
2019-05-19T00:45:18.767Z,8.40
2019-05-19T00:47:47.417Z,8.47
2019-05-19T00:50:16.233Z,8.90
2019-05-19T00:52:45.548Z,8.80
2019-05-19T00:55:14.554Z,8.27
2019-05-19T01:00:21.983Z,9.90
2019-05-19T01:05:28.335Z,8.83
2019-05-19T01:07:57.136Z,8.60
2019-05-19T01:10:25.812Z,9.53
2019-05-19T01:12:54.974Z,8.30
2019-05-19T01:18:02.253Z,9.00
2019-05-19T01:20:32.893Z,8.40
2019-05-19T01:23:02.166Z,8.60
2019-05-19T01:25:30.903Z,9.40
2019-05-19T01:27:59.604Z,9.70
2019-05-19T01:30:29.176Z,8.43
2019-05-19T01:35:38.542Z,7.93
2019-05-19T01:40:44.930Z,7.80
2019-05-19T01:43:13.958Z,7.57
2019-05-19T01:45:42.688Z,7.77
2019-05-19T01:48:11.858Z,8.17
2019-05-19T01:53:21.172Z,8.20
2019-05-19T01:55:50.280Z,9.13
2019-05-19T01:58:19.479Z,9.00
2019-05-19T02:00:48.341Z,8.87
2019-05-19T02:03:18.374Z,9.07
2019-05-19T02:08:33.190Z,9.80
2019-05-19T02:11:01.875Z,9.53
2019-05-19T02:13:30.653Z,10.93
2019-05-19T02:16:00.638Z,10.90
2019-05-19T02:21:10.026Z,9.87
2019-05-19T02:23:40.571Z,10.90
2019-05-19T02:26:10.107Z,10.87
2019-05-19T02:28:38.942Z,10.97
2019-05-19T02:31:07.687Z,10.90
2019-05-19T02:33:39.904Z,10.47
2019-05-19T02:36:08.626Z,10.37
2019-05-19T02:38:37.570Z,9.17
2019-05-19T02:41:09.208Z,10.73
2019-05-19T02:43:38.926Z,9.60
2019-05-19T02:46:09.022Z,10.67
2019-05-19T02:48:39.599Z,10.53
2019-05-19T02:51:12.061Z,10.73
2019-05-19T02:53:43.853Z,9.87
2019-05-19T02:56:13.413Z,9.23
2019-05-19T03:01:22.425Z,10.83
2019-05-19T03:06:28.618Z,11.17
2019-05-19T03:08:57.792Z,11.90
2019-05-19T03:14:16.727Z,10.97
2019-05-19T03:16:45.742Z,10.67
2019-05-19T03:19:14.430Z,10.13
2019-05-19T03:24:23.649Z,9.33
2019-05-19T03:26:53.604Z,10.30
2019-05-19T03:32:28.392Z,10.73
2019-05-19T03:37:37.273Z,10.97
2019-05-19T03:40:19.138Z,10.57
2019-05-19T03:42:50.129Z,9.43
2019-05-19T03:45:18.966Z,9.77
2019-05-19T03:47:47.591Z,8.87
2019-05-19T03:50:16.503Z,10.23
2019-05-19T03:52:45.177Z,9.37
2019-05-19T03:55:14.220Z,9.57
2019-05-19T03:57:43.398Z,10.10
2019-05-19T04:02:55.955Z,10.80
2019-05-19T04:08:02.135Z,9.90
2019-05-19T04:10:30.834Z,11.40
2019-05-19T04:15:44.037Z,11.57
2019-05-19T04:18:12.741Z,10.67
2019-05-19T04:20:42.012Z,9.17
2019-05-19T04:23:11.146Z,10.00
2019-05-19T04:25:39.949Z,9.43
2019-05-19T04:30:46.178Z,11.40
2019-05-19T04:33:15.516Z,14.80
2019-05-19T04:35:44.565Z,15.17
2019-05-19T04:38:13.587Z,14.17
2019-05-19T04:40:42.647Z,13.67
2019-05-19T04:45:50.330Z,16.00
2019-05-19T04:48:19.328Z,14.77
2019-05-19T04:50:47.979Z,15.17
2019-05-19T04:55:54.726Z,14.90
2019-05-19T05:01:04.253Z,16.43
2019-05-19T05:03:33.512Z,15.60
2019-05-19T05:08:40.758Z,16.27
2019-05-19T05:13:50.831Z,16.00
2019-05-19T05:16:19.491Z,16.53
2019-05-19T05:21:28.969Z,17.13
2019-05-19T05:23:57.640Z,16.47
2019-05-19T05:26:27.046Z,17.10
2019-05-19T05:28:55.697Z,17.57
2019-05-19T05:31:24.366Z,15.47
2019-05-19T05:36:33.206Z,16.90
2019-05-19T05:39:01.943Z,16.97
2019-05-19T05:41:30.612Z,16.37
2019-05-19T05:43:59.306Z,16.00
2019-05-19T05:46:28.422Z,16.03
2019-05-19T05:48:57.750Z,17.97
2019-05-19T05:54:03.988Z,16.33
2019-05-19T05:56:33.474Z,16.77
2019-05-19T06:01:42.055Z,16.80
2019-05-19T06:04:11.080Z,15.30
2019-05-19T06:06:39.815Z,16.83
2019-05-19T06:09:09.409Z,14.97
2019-05-19T06:11:38.515Z,15.10
2019-05-19T06:16:47.786Z,14.07
2019-05-19T06:19:16.409Z,12.30
2019-05-19T06:21:45.056Z,11.67
2019-05-19T06:24:13.709Z,12.03
2019-05-19T06:29:23.259Z,12.67
2019-05-19T06:34:47.419Z,11.90
2019-05-19T06:37:16.489Z,12.37
2019-05-19T06:39:45.184Z,12.07
2019-05-19T06:42:14.920Z,11.23
2019-05-19T06:44:44.192Z,11.07
2019-05-19T06:47:13.232Z,11.07
2019-05-19T06:52:23.110Z,10.50
2019-05-19T06:54:52.309Z,10.60
2019-05-19T06:57:20.996Z,10.60
2019-05-19T06:59:49.693Z,10.60
2019-05-19T07:04:59.361Z,10.00
2019-05-19T07:07:28.043Z,10.07
2019-05-19T07:09:58.890Z,9.93
2019-05-19T07:12:27.620Z,10.23
2019-05-19T07:17:41.768Z,10.30
2019-05-19T07:20:11.232Z,10.00
2019-05-19T07:25:20.098Z,9.77
2019-05-19T07:27:48.764Z,10.07
2019-05-19T07:30:18.339Z,10.13
2019-05-19T07:32:47.044Z,10.03
2019-05-19T07:35:15.700Z,10.10
2019-05-19T07:37:44.707Z,9.40
2019-05-19T07:42:53.525Z,10.57
2019-05-19T07:48:02.321Z,10.13
2019-05-19T07:50:30.955Z,10.57
2019-05-19T07:55:37.901Z,9.53
2019-05-19T07:58:07.005Z,9.60
2019-05-19T08:00:36.416Z,9.97
2019-05-19T08:03:05.486Z,8.90
2019-05-19T08:05:34.960Z,9.23
2019-05-19T08:08:04.038Z,9.67
2019-05-19T08:10:33.084Z,9.13
2019-05-19T08:13:01.720Z,9.57
2019-05-19T08:15:30.686Z,10.13
2019-05-19T08:17:59.491Z,10.00
2019-05-19T08:20:28.504Z,9.40
2019-05-19T08:22:57.137Z,9.33
2019-05-19T08:25:26.652Z,9.07
2019-05-19T08:30:33.976Z,10.20
2019-05-19T08:33:03.089Z,10.17
2019-05-19T08:35:31.800Z,11.30
2019-05-19T08:38:00.867Z,10.70
2019-05-19T08:40:29.951Z,10.23
2019-05-19T08:45:36.915Z,10.33
2019-05-19T08:48:07.506Z,10.67
2019-05-19T08:50:36.371Z,10.70
2019-05-19T08:53:05.045Z,9.53
2019-05-19T08:55:33.713Z,10.53
2019-05-19T09:00:41.147Z,10.72
2019-05-19T09:03:09.812Z,9.85
2019-05-19T09:05:38.575Z,9.88
2019-05-19T09:08:08.227Z,10.05
2019-05-19T09:10:36.851Z,9.95
2019-05-19T09:13:05.585Z,10.30
2019-05-19T09:15:34.303Z,9.90
2019-05-19T09:18:03.350Z,10.28
2019-05-19T09:23:11.898Z,9.25
2019-05-19T09:25:41.026Z,9.73
2019-05-19T09:30:47.630Z,9.50
2019-05-19T09:33:16.300Z,8.85
2019-05-19T09:35:44.956Z,9.60
2019-05-19T09:38:14.685Z,9.35
2019-05-19T09:40:43.299Z,9.35
2019-05-19T09:45:50.105Z,8.05
2019-05-19T09:48:19.230Z,8.00
2019-05-19T09:50:47.905Z,8.35
2019-05-19T09:53:16.641Z,7.95
2019-05-19T09:55:45.744Z,8.10
2019-05-19T09:58:18.978Z,8.55
2019-05-19T10:03:24.327Z,7.22
2019-05-19T10:05:53.272Z,6.67
2019-05-19T10:12:00.364Z,7.28
2019-05-19T10:14:29.428Z,7.53
2019-05-19T10:16:58.472Z,7.67
2019-05-19T10:19:27.139Z,6.83
2019-05-19T10:21:55.885Z,7.45
2019-05-19T10:24:24.531Z,7.30
2019-05-19T10:26:53.539Z,7.30
2019-05-19T10:29:22.279Z,6.58
2019-05-19T10:31:54.302Z,6.60
2019-05-19T10:37:00.506Z,7.05
2019-05-19T10:39:29.572Z,7.55
2019-05-19T10:41:58.641Z,7.80
2019-05-19T10:44:27.304Z,7.60
2019-05-19T10:46:56.016Z,6.83
2019-05-19T10:49:25.639Z,7.60
2019-05-19T10:51:54.753Z,7.78
2019-05-19T10:54:23.479Z,7.55
2019-05-19T10:56:53.059Z,7.28
2019-05-19T10:59:22.441Z,7.10
2019-05-19T11:01:51.750Z,7.53
2019-05-19T11:07:00.856Z,7.03
2019-05-19T11:09:30.013Z,6.95
2019-05-19T11:11:59.140Z,7.10
2019-05-19T11:14:27.840Z,7.33
2019-05-19T11:16:56.936Z,7.67
2019-05-19T11:19:25.958Z,7.97
2019-05-19T11:21:54.674Z,7.75
2019-05-19T11:24:23.715Z,7.65
2019-05-19T11:26:53.387Z,6.83
2019-05-19T11:29:22.176Z,7.00
2019-05-19T11:34:30.789Z,6.50
2019-05-19T11:39:47.249Z,6.97
2019-05-19T11:42:15.862Z,7.33
2019-05-19T11:44:44.490Z,7.90
2019-05-19T11:47:13.492Z,7.12
2019-05-19T11:49:43.743Z,7.30
2019-05-19T11:52:12.608Z,8.53
2019-05-19T11:54:41.676Z,6.95
2019-05-19T11:57:10.336Z,7.00
2019-05-19T11:59:41.593Z,6.83
2019-05-19T12:02:11.649Z,6.65
2019-05-19T12:07:18.324Z,6.62
2019-05-19T12:09:47.415Z,7.65
2019-05-19T12:12:16.180Z,7.35
2019-05-19T12:14:45.238Z,7.30
2019-05-19T12:19:59.983Z,6.62
2019-05-19T12:22:29.090Z,7.65
2019-05-19T12:24:58.011Z,7.40
2019-05-19T12:30:04.655Z,7.22
2019-05-19T12:32:35.041Z,7.08
2019-05-19T12:35:04.429Z,7.03
2019-05-19T12:40:11.738Z,6.90
2019-05-19T12:42:40.482Z,6.80
2019-05-19T12:45:10.457Z,6.72
2019-05-19T12:47:39.207Z,6.70
2019-05-19T12:52:53.048Z,6.95
2019-05-19T12:55:22.860Z,6.20
2019-05-19T12:57:51.594Z,6.60
2019-05-19T13:00:20.915Z,6.28
2019-05-19T13:02:50.205Z,6.55
2019-05-19T13:05:19.232Z,6.67
2019-05-19T13:07:48.232Z,6.17
2019-05-19T13:10:17.471Z,6.83
2019-05-19T13:15:27.110Z,5.83
2019-05-19T13:17:55.757Z,5.80
2019-05-19T13:23:08.417Z,5.80
2019-05-19T13:25:37.356Z,6.05
2019-05-19T13:28:06.444Z,5.42
2019-05-19T13:30:35.136Z,5.33
2019-05-19T13:33:03.811Z,6.05
2019-05-19T13:35:32.834Z,5.67
2019-05-19T13:38:01.935Z,6.00
2019-05-19T13:40:31.751Z,6.10
2019-05-19T13:43:00.765Z,5.33
2019-05-19T13:45:29.848Z,5.50
2019-05-19T13:47:58.477Z,5.62
2019-05-19T13:50:27.521Z,5.80
2019-05-19T13:52:56.637Z,5.80
2019-05-19T13:55:25.657Z,5.75
2019-05-19T13:57:54.346Z,5.70
2019-05-19T14:00:23.062Z,5.17
2019-05-19T14:02:52.196Z,5.40
2019-05-19T14:05:21.271Z,5.08
2019-05-19T14:07:50.343Z,5.60
2019-05-19T14:10:18.965Z,6.05
2019-05-19T14:15:33.411Z,5.60
2019-05-19T14:20:41.132Z,4.60
2019-05-19T14:23:10.142Z,5.17
2019-05-19T14:25:38.895Z,4.90
2019-05-19T14:28:07.604Z,4.70
2019-05-19T14:33:21.833Z,4.20
2019-05-19T14:38:29.817Z,3.77
2019-05-19T14:40:59.200Z,4.05
2019-05-19T14:46:07.258Z,4.65
2019-05-19T14:48:35.908Z,4.75
2019-05-19T14:51:04.959Z,5.58
2019-05-19T14:53:33.677Z,4.42
2019-05-19T14:56:02.456Z,4.97
2019-05-19T14:58:31.775Z,4.95
2019-05-19T15:03:41.425Z,4.65
2019-05-19T15:06:10.517Z,4.85
2019-05-19T15:11:22.134Z,5.08
2019-05-19T15:13:51.257Z,5.10
2019-05-19T15:16:19.895Z,5.33
2019-05-19T15:18:48.591Z,5.57
2019-05-19T15:21:17.609Z,5.10
2019-05-19T15:26:35.107Z,5.12
2019-05-19T15:29:04.239Z,5.47
2019-05-19T15:31:33.211Z,5.53
2019-05-19T15:34:02.237Z,5.47
2019-05-19T15:39:16.427Z,5.50
2019-05-19T15:41:45.054Z,5.60
2019-05-19T15:44:13.979Z,5.80
2019-05-19T15:46:42.654Z,5.55
2019-05-19T15:52:01.535Z,5.95
2019-05-19T15:54:25.260Z,5.42
2019-05-19T15:56:55.295Z,5.80
2019-05-19T15:59:24.686Z,5.60
2019-05-19T16:01:53.396Z,5.60
2019-05-19T16:04:22.073Z,6.20
2019-05-19T16:06:50.974Z,5.57
2019-05-19T16:09:19.650Z,5.43
2019-05-19T16:14:38.103Z,5.20
2019-05-19T16:19:44.323Z,5.10
2019-05-19T16:22:13.392Z,5.00
2019-05-19T16:24:42.027Z,5.27
2019-05-19T16:29:49.562Z,5.63
2019-05-19T16:35:03.424Z,5.27
2019-05-19T16:37:32.455Z,5.28
2019-05-19T16:40:01.754Z,5.23
2019-05-19T16:42:30.465Z,4.80
2019-05-19T16:47:43.589Z,5.22
2019-05-19T16:50:12.551Z,5.03
2019-05-19T16:52:41.275Z,5.00
2019-05-19T16:55:24.500Z,4.87
2019-05-19T17:00:33.526Z,5.17
2019-05-19T17:05:48.789Z,5.03
2019-05-19T17:08:19.100Z,5.00
2019-05-19T17:10:48.031Z,4.70
2019-05-19T17:16:03.907Z,5.00
2019-05-19T17:18:32.942Z,4.80
2019-05-19T17:21:01.586Z,5.57
2019-05-19T17:23:30.742Z,5.60
2019-05-19T17:25:59.572Z,4.87
2019-05-19T17:28:28.227Z,5.20
2019-05-19T17:30:57.001Z,4.97
2019-05-19T17:33:26.549Z,5.10
2019-05-19T17:35:55.278Z,5.20
2019-05-19T17:41:05.118Z,5.90
2019-05-19T17:43:33.809Z,5.20
2019-05-19T17:46:02.937Z,4.93
2019-05-19T17:48:31.627Z,5.03
2019-05-19T17:51:00.351Z,5.60
2019-05-19T17:53:29.531Z,5.27
2019-05-19T17:58:46.053Z,5.60
2019-05-19T18:01:15.101Z,5.43
2019-05-19T18:03:44.966Z,5.23
2019-05-19T18:06:13.688Z,5.07
2019-05-19T18:08:42.803Z,5.10
2019-05-19T18:13:50.806Z,5.97
2019-05-19T18:16:19.606Z,5.20
2019-05-19T18:18:48.536Z,5.63
2019-05-19T18:21:17.186Z,5.30
2019-05-19T18:23:46.179Z,5.10
2019-05-19T18:26:14.804Z,4.60
2019-05-19T18:28:43.879Z,5.00
2019-05-19T18:33:49.829Z,4.90
2019-05-19T18:36:18.918Z,5.23
2019-05-19T18:38:47.626Z,4.90
2019-05-19T18:41:16.704Z,5.23
2019-05-19T18:43:45.346Z,4.97
2019-05-19T18:46:14.015Z,4.73
2019-05-19T18:51:21.602Z,4.63
2019-05-19T18:56:30.358Z,5.27
2019-05-19T18:58:59.408Z,5.10
2019-05-19T19:01:28.488Z,4.97
2019-05-19T19:03:57.492Z,5.33
2019-05-19T19:06:31.174Z,5.20
2019-05-19T19:09:00.210Z,5.23
2019-05-19T19:14:10.477Z,4.90
2019-05-19T19:16:39.573Z,4.97
2019-05-19T19:21:48.906Z,5.27
2019-05-19T19:27:00.935Z,5.07
2019-05-19T19:29:29.888Z,5.07
2019-05-19T19:31:58.543Z,4.80
2019-05-19T19:34:27.275Z,4.93
2019-05-19T19:36:57.046Z,4.60
2019-05-19T19:39:25.760Z,5.20
2019-05-19T19:41:54.484Z,5.17
2019-05-19T19:44:23.227Z,5.20
2019-05-19T19:49:36.896Z,5.53
2019-05-19T19:52:06.242Z,5.63
2019-05-19T19:54:34.850Z,5.77
2019-05-19T19:59:43.087Z,5.53
2019-05-19T20:04:49.784Z,5.97
2019-05-19T20:07:18.429Z,5.40
2019-05-19T20:12:25.620Z,5.80
2019-05-19T20:14:54.285Z,5.90
2019-05-19T20:17:23.110Z,5.47
2019-05-19T20:19:52.485Z,6.00
2019-05-19T20:22:21.256Z,5.80
2019-05-19T20:27:31.133Z,6.20
2019-05-19T20:30:00.245Z,6.07
2019-05-19T20:35:12.845Z,5.80
2019-05-19T20:37:41.986Z,5.90
2019-05-19T20:40:11.908Z,5.97
2019-05-19T20:42:41.315Z,6.13
2019-05-19T20:45:10.105Z,5.60
2019-05-19T20:47:38.801Z,6.23
2019-05-19T20:50:07.625Z,6.13
2019-05-19T20:55:16.232Z,5.50
2019-05-19T20:57:44.874Z,5.83
2019-05-19T21:06:48.638Z,6.43
2019-05-19T21:09:17.753Z,6.10
2019-05-19T21:11:46.708Z,6.10
2019-05-19T21:14:15.514Z,6.27
2019-05-19T21:16:44.181Z,5.93
2019-05-19T21:21:51.370Z,6.67
2019-05-19T21:24:20.016Z,7.03
2019-05-19T21:29:36.142Z,5.87
2019-05-19T21:32:05.394Z,6.13
2019-05-19T21:34:34.071Z,5.80
2019-05-19T21:37:02.770Z,5.93
2019-05-19T21:39:31.567Z,5.93
2019-05-19T21:42:00.254Z,5.60
2019-05-19T21:44:29.979Z,5.93
2019-05-19T21:49:38.625Z,6.07
2019-05-19T21:52:07.712Z,6.03
2019-05-19T21:54:36.786Z,6.83
2019-05-19T21:57:05.483Z,6.67
2019-05-19T21:59:34.130Z,6.50
2019-05-19T22:02:02.891Z,6.40
2019-05-19T22:07:16.484Z,6.17
2019-05-19T22:09:45.858Z,6.17
2019-05-19T22:12:14.857Z,6.40
2019-05-19T22:17:25.627Z,6.43
2019-05-19T22:19:54.314Z,6.60
2019-05-19T22:22:23.911Z,6.60
2019-05-19T22:27:40.712Z,6.73
2019-05-19T22:30:10.215Z,6.10
2019-05-19T22:32:38.857Z,6.57
2019-05-19T22:35:12.191Z,6.60
2019-05-19T22:37:41.360Z,6.77
2019-05-19T22:40:10.354Z,6.77
2019-05-19T22:42:39.245Z,6.23
2019-05-19T22:45:08.275Z,7.00
2019-05-19T22:47:37.998Z,6.60
2019-05-19T22:52:47.455Z,7.00
2019-05-19T22:55:16.119Z,6.83
2019-05-19T22:57:45.078Z,6.67
2019-05-19T23:00:16.445Z,7.43
2019-05-19T23:02:44.997Z,7.30
2019-05-19T23:07:53.574Z,7.90
2019-05-19T23:13:00.425Z,8.10
2019-05-19T23:18:06.896Z,8.40
2019-05-19T23:20:35.855Z,7.60
2019-05-19T23:25:45.116Z,7.77
2019-05-19T23:28:14.166Z,8.83
2019-05-19T23:30:43.558Z,8.37
2019-05-19T23:33:12.649Z,8.20
2019-05-19T23:35:41.657Z,8.83
2019-05-19T23:38:11.265Z,8.73
2019-05-19T23:40:40.535Z,9.43
2019-05-19T23:45:56.052Z,9.03
2019-05-19T23:48:25.449Z,9.20
2019-05-19T23:50:54.121Z,10.03
2019-05-19T23:53:23.601Z,10.13
2019-05-19T23:58:32.487Z,11.13
